Teachey, North Carolina
Current Conditions -  °F | °C
As of 7:55 AM on Wednesday 26 Nov 2014 (Local Time) from KDPL Reporting Station
Light Rain Light Rain  
Wind Chill: 51°   Ceiling: 500
Heat Index: 51°   Visibility: 4mi
Dew Point: 50°   Wind: 17mph
Humidity: 97%   Direction: 350°N
Pressure: 29.79"   Gusts: 22mph
Location:  34.77°N, 78.01°W
Report Text: KDPL 261255Z AUTO 35015G19KT 4SM -RA OVC005 11/10 A2979 RMK AO2 P0002 T01060102
Loading
Personal Weather Stations






























Interactive Weather Map New forecast layout! Learn more

10-Day Weather Forecast

Advertisements
Track Severe Weather on mobile